createdAt,value
2018-02-20T00:00:27.216Z,23.10
2018-02-20T00:02:54.685Z,22.60
2018-02-20T00:05:22.152Z,22.23
2018-02-20T00:07:49.606Z,21.13
2018-02-20T00:10:17.064Z,21.77
2018-02-20T00:12:44.522Z,20.87
2018-02-20T00:15:11.976Z,19.97
2018-02-20T00:17:39.471Z,21.93
2018-02-20T00:20:06.918Z,21.67
2018-02-20T00:22:35.142Z,20.87
2018-02-20T00:25:02.590Z,21.03
2018-02-20T00:27:30.053Z,22.33
2018-02-20T00:29:57.507Z,21.93
2018-02-20T00:32:24.959Z,22.27
2018-02-20T00:34:52.423Z,21.80
2018-02-20T00:37:19.881Z,23.43
2018-02-20T00:39:47.335Z,22.43
2018-02-20T00:42:14.821Z,22.23
2018-02-20T00:44:42.306Z,22.00
2018-02-20T00:47:09.761Z,22.63
2018-02-20T00:49:37.245Z,22.67
2018-02-20T00:52:04.714Z,23.37
2018-02-20T00:54:32.169Z,23.37
2018-02-20T00:56:59.654Z,22.60
2018-02-20T00:59:27.106Z,21.77
2018-02-20T01:01:54.557Z,23.03
2018-02-20T01:04:22.038Z,21.93
2018-02-20T01:06:50.254Z,23.03
2018-02-20T01:09:17.715Z,22.40
2018-02-20T01:11:45.184Z,23.83
2018-02-20T01:14:12.646Z,24.47
2018-02-20T01:16:40.138Z,22.83
2018-02-20T01:19:07.592Z,22.50
2018-02-20T01:21:35.092Z,23.23
2018-02-20T01:24:02.536Z,22.63
2018-02-20T01:26:30.014Z,23.03
2018-02-20T01:28:57.476Z,22.90
2018-02-20T01:31:25.353Z,22.80
2018-02-20T01:33:52.818Z,23.27
2018-02-20T01:36:20.299Z,23.40
2018-02-20T01:38:47.771Z,22.13
2018-02-20T01:41:15.219Z,23.33
2018-02-20T01:43:42.764Z,23.40
2018-02-20T01:46:10.214Z,23.60
2018-02-20T01:48:37.686Z,24.40
2018-02-20T01:51:08.625Z,22.60
2018-02-20T01:53:36.079Z,22.90
2018-02-20T01:56:03.534Z,21.97
2018-02-20T01:58:30.993Z,22.53
2018-02-20T02:00:58.446Z,22.10
2018-02-20T02:03:25.909Z,23.27
2018-02-20T02:05:53.361Z,21.63
2018-02-20T02:08:20.814Z,22.27
2018-02-20T02:10:48.282Z,21.70
2018-02-20T02:13:16.508Z,22.23
2018-02-20T02:15:44.314Z,22.40
2018-02-20T02:18:11.762Z,22.00
2018-02-20T02:20:39.227Z,21.80
2018-02-20T02:23:07.406Z,21.10
2018-02-20T02:25:34.906Z,21.17
2018-02-20T02:28:02.396Z,21.53
2018-02-20T02:30:29.850Z,21.10
2018-02-20T02:32:57.305Z,22.23
2018-02-20T02:35:24.788Z,20.33
2018-02-20T02:37:52.250Z,20.47
2018-02-20T02:40:19.795Z,19.73
2018-02-20T02:42:47.564Z,21.10
2018-02-20T02:45:15.193Z,19.57
2018-02-20T02:47:42.784Z,19.83
2018-02-20T02:50:10.244Z,20.37
2018-02-20T02:52:37.995Z,20.87
2018-02-20T02:55:05.470Z,19.90
2018-02-20T02:57:32.918Z,20.47
2018-02-20T03:00:00.669Z,19.87
2018-02-20T03:02:28.143Z,20.10
2018-02-20T03:04:55.616Z,19.70
2018-02-20T03:07:23.061Z,20.73
2018-02-20T03:09:50.518Z,20.63
2018-02-20T03:12:18.202Z,20.40
2018-02-20T03:14:45.677Z,20.27
2018-02-20T03:17:13.182Z,19.77
2018-02-20T03:19:40.653Z,21.07
2018-02-20T03:22:08.129Z,20.47
2018-02-20T03:24:35.589Z,20.30
2018-02-20T03:27:03.621Z,20.50
2018-02-20T03:29:31.079Z,19.53
2018-02-20T03:31:58.538Z,21.13
2018-02-20T03:34:26.286Z,20.53
2018-02-20T03:36:53.750Z,19.77
2018-02-20T03:39:21.214Z,20.90
2018-02-20T03:41:48.835Z,19.37
2018-02-20T03:44:16.313Z,18.27
2018-02-20T03:46:43.771Z,18.00
2018-02-20T03:49:11.233Z,19.23
2018-02-20T03:51:38.720Z,18.57
2018-02-20T03:54:06.245Z,19.93
2018-02-20T03:56:33.717Z,20.13
2018-02-20T03:59:01.195Z,20.27
2018-02-20T04:01:28.829Z,19.43
2018-02-20T04:03:56.294Z,19.27
2018-02-20T04:06:23.843Z,18.23
2018-02-20T04:08:51.482Z,16.77
2018-02-20T04:11:18.945Z,17.50
2018-02-20T04:13:46.617Z,18.20
2018-02-20T04:16:14.087Z,18.00
2018-02-20T04:18:41.551Z,17.10
2018-02-20T04:21:09.767Z,18.03
2018-02-20T04:23:37.374Z,17.33
2018-02-20T04:26:04.841Z,17.63
2018-02-20T04:28:33.086Z,17.40
2018-02-20T04:31:00.547Z,18.90
2018-02-20T04:33:27.998Z,18.67
2018-02-20T04:35:55.467Z,17.83
2018-02-20T04:38:22.934Z,17.00
2018-02-20T04:40:50.611Z,17.77
2018-02-20T04:43:18.080Z,17.40
2018-02-20T04:45:45.610Z,17.47
2018-02-20T04:48:13.376Z,19.27
2018-02-20T04:50:40.879Z,18.80
2018-02-20T04:53:08.535Z,19.20
2018-02-20T04:55:36.039Z,19.10
2018-02-20T04:58:03.634Z,23.33
2018-02-20T05:00:31.885Z,25.37
2018-02-20T05:02:59.635Z,21.30
2018-02-20T05:05:27.291Z,19.13
2018-02-20T05:07:54.870Z,17.70
2018-02-20T05:10:22.342Z,18.47
2018-02-20T05:12:49.851Z,18.90
2018-02-20T05:15:17.280Z,18.23
2018-02-20T05:17:44.730Z,18.00
2018-02-20T05:20:12.862Z,18.30
2018-02-20T05:22:40.322Z,20.37
2018-02-20T05:25:07.788Z,21.87
2018-02-20T05:27:35.302Z,24.70
2018-02-20T05:30:02.766Z,20.53
2018-02-20T05:32:30.230Z,20.60
2018-02-20T05:34:57.678Z,19.37
2018-02-20T05:37:25.139Z,19.17
2018-02-20T05:39:52.586Z,18.73
2018-02-20T05:42:20.042Z,18.50
2018-02-20T05:44:47.785Z,19.37
2018-02-20T05:47:15.257Z,18.33
2018-02-20T05:49:42.706Z,19.33
2018-02-20T05:52:10.159Z,18.47
2018-02-20T05:54:37.618Z,18.13
2018-02-20T05:57:05.979Z,18.13
2018-02-20T05:59:33.453Z,19.83
2018-02-20T06:02:00.911Z,18.87
2018-02-20T06:04:28.375Z,19.10
2018-02-20T06:06:55.831Z,19.77
2018-02-20T06:09:23.299Z,19.43
2018-02-20T06:11:50.764Z,19.87
2018-02-20T06:14:18.242Z,20.73
2018-02-20T06:16:45.770Z,19.67
2018-02-20T06:19:13.250Z,21.87
2018-02-20T06:21:40.718Z,19.53
2018-02-20T06:24:08.218Z,20.77
2018-02-20T06:26:35.684Z,20.20
2018-02-20T06:29:03.153Z,24.40
2018-02-20T06:31:30.624Z,19.40
2018-02-20T06:33:58.092Z,19.67
2018-02-20T06:36:25.605Z,20.37
2018-02-20T06:38:53.484Z,19.83
2018-02-20T06:41:20.938Z,19.43
2018-02-20T06:43:48.587Z,20.27
2018-02-20T06:46:16.039Z,20.10
2018-02-20T06:48:43.500Z,20.33
2018-02-20T06:51:10.968Z,20.57
2018-02-20T06:53:38.422Z,20.37
2018-02-20T06:56:05.877Z,19.57
2018-02-20T06:58:33.390Z,20.23
2018-02-20T07:01:00.863Z,21.03
2018-02-20T07:03:28.329Z,21.13
2018-02-20T07:05:55.798Z,20.20
2018-02-20T07:08:23.257Z,20.73
2018-02-20T07:10:50.722Z,21.13
2018-02-20T07:13:18.183Z,20.07
2018-02-20T07:15:45.640Z,20.53
2018-02-20T07:18:13.098Z,19.83
2018-02-20T07:20:40.562Z,21.27
2018-02-20T07:23:08.029Z,21.10
2018-02-20T07:25:36.259Z,22.27
2018-02-20T07:28:03.706Z,20.47
2018-02-20T07:30:31.197Z,22.47
2018-02-20T07:32:58.647Z,22.53
2018-02-20T07:35:26.107Z,20.33
2018-02-20T07:37:53.577Z,21.70
2018-02-20T07:40:21.316Z,21.37
2018-02-20T07:42:48.773Z,21.63
2018-02-20T07:45:16.229Z,21.20
2018-02-20T07:47:43.706Z,22.00
2018-02-20T07:50:11.186Z,22.30
2018-02-20T07:52:38.613Z,23.17
2018-02-20T07:55:06.069Z,23.17
2018-02-20T07:57:33.550Z,22.63
2018-02-20T08:00:01.003Z,22.20
2018-02-20T08:02:28.467Z,22.63
2018-02-20T08:04:55.927Z,23.43
2018-02-20T08:07:23.391Z,23.27
2018-02-20T08:09:50.834Z,22.73
2018-02-20T08:12:18.307Z,22.97
2018-02-20T08:14:45.763Z,23.57
2018-02-20T08:17:13.215Z,25.33
2018-02-20T08:19:40.677Z,26.20
2018-02-20T08:22:08.130Z,26.93
2018-02-20T08:24:35.586Z,27.43
2018-02-20T08:27:03.050Z,27.30
2018-02-20T08:29:30.516Z,28.20
2018-02-20T08:31:57.961Z,28.37
2018-02-20T08:34:25.423Z,26.60
2018-02-20T08:36:52.877Z,27.17
2018-02-20T08:39:20.325Z,27.60
2018-02-20T08:41:47.781Z,26.90
2018-02-20T08:44:15.234Z,26.30
2018-02-20T08:46:42.686Z,26.27
2018-02-20T08:49:10.149Z,26.50
2018-02-20T08:51:37.590Z,26.20
2018-02-20T08:54:05.126Z,26.27
2018-02-20T08:56:32.574Z,27.10
2018-02-20T08:59:00.030Z,26.67
2018-02-20T09:01:27.529Z,25.50
2018-02-20T09:03:54.986Z,26.73
2018-02-20T09:06:22.450Z,26.53
2018-02-20T09:08:50.060Z,27.63
2018-02-20T09:11:17.821Z,25.23
2018-02-20T09:13:45.274Z,24.77
2018-02-20T09:16:12.826Z,25.57
2018-02-20T09:18:40.340Z,26.63
2018-02-20T09:21:07.772Z,25.43
2018-02-20T09:23:35.255Z,24.90
2018-02-20T09:26:02.732Z,26.37
2018-02-20T09:28:30.173Z,26.00
2018-02-20T09:30:57.781Z,26.30
2018-02-20T09:33:25.218Z,26.47
2018-02-20T09:35:52.750Z,27.20
2018-02-20T09:38:20.197Z,28.03
2018-02-20T09:40:47.663Z,35.93
2018-02-20T09:43:15.114Z,35.97
2018-02-20T09:45:42.576Z,30.43
2018-02-20T09:48:10.030Z,29.53
2018-02-20T09:50:37.491Z,28.37
2018-02-20T09:53:04.942Z,27.23
2018-02-20T09:55:32.390Z,29.37
2018-02-20T09:57:59.859Z,28.67
2018-02-20T10:00:27.312Z,27.03
2018-02-20T10:02:54.766Z,26.60
2018-02-20T10:05:22.219Z,27.60
2018-02-20T10:07:49.689Z,28.80
2018-02-20T10:10:17.143Z,28.17
2018-02-20T10:12:44.593Z,29.03
2018-02-20T10:15:13.288Z,28.23
2018-02-20T10:17:40.737Z,27.57
2018-02-20T10:20:08.199Z,28.90
2018-02-20T10:22:35.654Z,31.43
2018-02-20T10:25:03.111Z,31.70
2018-02-20T10:27:30.573Z,31.07
2018-02-20T10:29:58.014Z,32.80
2018-02-20T10:32:25.466Z,32.70
2018-02-20T10:34:52.959Z,32.83
2018-02-20T10:37:20.420Z,30.90
2018-02-20T10:39:47.874Z,28.80
2018-02-20T10:42:15.332Z,30.40
2018-02-20T10:44:42.791Z,29.30
2018-02-20T10:47:10.247Z,30.27
2018-02-20T10:49:37.704Z,31.17
2018-02-20T10:52:05.150Z,30.17
2018-02-20T10:54:32.606Z,28.90
2018-02-20T10:57:00.063Z,31.40
2018-02-20T10:59:27.546Z,34.60
2018-02-20T11:01:54.996Z,32.80
2018-02-20T11:04:22.468Z,28.30
2018-02-20T11:06:49.917Z,29.47
2018-02-20T11:09:17.375Z,29.17
2018-02-20T11:11:44.827Z,28.10
2018-02-20T11:14:12.330Z,28.17
2018-02-20T11:16:39.741Z,28.93
2018-02-20T11:19:07.255Z,29.27
2018-02-20T11:21:34.724Z,37.37
2018-02-20T11:24:02.179Z,29.33
2018-02-20T11:26:29.638Z,29.17
2018-02-20T11:28:57.098Z,28.20
2018-02-20T11:31:24.554Z,28.60
2018-02-20T11:33:52.011Z,28.60
2018-02-20T11:36:19.472Z,28.03
2018-02-20T11:38:46.927Z,28.83
2018-02-20T11:41:14.403Z,29.63
2018-02-20T11:43:41.842Z,29.13
2018-02-20T11:46:09.327Z,27.70
2018-02-20T11:48:36.882Z,28.43
2018-02-20T11:51:04.338Z,27.57
2018-02-20T11:53:31.780Z,27.93
2018-02-20T11:55:59.237Z,28.50
2018-02-20T11:58:26.690Z,27.30
2018-02-20T12:00:54.159Z,29.40
2018-02-20T12:03:21.648Z,28.83
2018-02-20T12:05:49.114Z,26.90
2018-02-20T12:08:16.598Z,28.27
2018-02-20T12:10:44.050Z,28.17
2018-02-20T12:13:11.506Z,28.10
2018-02-20T12:15:38.962Z,28.07
2018-02-20T12:18:06.444Z,26.77
2018-02-20T12:20:33.886Z,28.37
2018-02-20T12:23:01.427Z,28.43
2018-02-20T12:25:29.055Z,27.87
2018-02-20T12:27:56.646Z,27.27
2018-02-20T12:30:24.518Z,27.37
2018-02-20T12:32:52.329Z,26.20
2018-02-20T12:35:19.770Z,27.67
2018-02-20T12:37:47.226Z,27.17
2018-02-20T12:40:14.671Z,27.83
2018-02-20T12:42:42.925Z,26.03
2018-02-20T12:45:10.374Z,27.40
2018-02-20T12:47:37.813Z,26.77
2018-02-20T12:50:05.290Z,28.70
2018-02-20T12:52:32.738Z,28.07
2018-02-20T12:55:00.211Z,29.63
2018-02-20T12:57:27.662Z,28.27
2018-02-20T12:59:55.130Z,27.00
2018-02-20T13:02:22.583Z,27.90
2018-02-20T13:04:50.063Z,28.47
2018-02-20T13:07:17.574Z,27.43
2018-02-20T13:09:45.000Z,26.83
2018-02-20T13:12:12.457Z,27.43
2018-02-20T13:14:39.950Z,26.73
2018-02-20T13:17:07.387Z,27.87
2018-02-20T13:19:34.838Z,29.50
2018-02-20T13:22:02.303Z,28.60
2018-02-20T13:24:29.750Z,28.83
2018-02-20T13:26:57.207Z,29.07
2018-02-20T13:29:24.658Z,28.13
2018-02-20T13:31:53.106Z,28.70
2018-02-20T13:34:20.566Z,28.67
2018-02-20T13:36:48.022Z,30.60
2018-02-20T13:39:15.473Z,30.60
2018-02-20T13:41:43.694Z,29.13
2018-02-20T13:44:11.148Z,28.93
2018-02-20T13:46:38.613Z,29.20
2018-02-20T13:49:06.825Z,34.10
2018-02-20T13:51:35.058Z,31.07
2018-02-20T13:54:02.515Z,43.00
2018-02-20T13:56:29.979Z,35.13
2018-02-20T13:58:57.429Z,36.40
2018-02-20T14:01:24.897Z,31.03
2018-02-20T14:03:52.371Z,30.20
2018-02-20T14:06:19.818Z,29.47
2018-02-20T14:08:47.273Z,30.47
2018-02-20T14:11:14.731Z,28.53
2018-02-20T14:13:42.193Z,28.63
2018-02-20T14:16:09.642Z,28.73
2018-02-20T14:18:37.101Z,28.87
2018-02-20T14:21:05.411Z,28.77
2018-02-20T14:23:32.871Z,27.87
2018-02-20T14:26:00.346Z,29.17
2018-02-20T14:28:27.809Z,28.23
2018-02-20T14:30:55.460Z,29.10
2018-02-20T14:33:22.913Z,28.13
2018-02-20T14:35:50.373Z,28.23
2018-02-20T14:38:17.838Z,28.80
2018-02-20T14:40:45.278Z,29.83
2018-02-20T14:43:12.744Z,30.70
2018-02-20T14:45:40.194Z,31.60
2018-02-20T14:48:07.670Z,29.40
2018-02-20T14:50:35.126Z,28.60
2018-02-20T14:53:02.581Z,29.43
2018-02-20T14:55:30.038Z,29.23
2018-02-20T14:57:57.500Z,28.97
2018-02-20T15:00:24.950Z,28.23
2018-02-20T15:02:52.398Z,27.00
2018-02-20T15:05:19.859Z,27.70
2018-02-20T15:07:47.309Z,27.93
2018-02-20T15:10:14.770Z,29.17
2018-02-20T15:12:42.255Z,27.47
2018-02-20T15:15:09.726Z,28.20
2018-02-20T15:17:37.181Z,28.53
2018-02-20T15:20:04.651Z,28.60
2018-02-20T15:22:32.109Z,28.67
2018-02-20T15:24:59.577Z,29.47
2018-02-20T15:27:27.023Z,29.03
2018-02-20T15:29:55.245Z,29.50
2018-02-20T15:32:22.700Z,27.90
2018-02-20T15:34:50.157Z,27.83
2018-02-20T15:37:17.613Z,30.37
2018-02-20T15:39:45.070Z,29.57
2018-02-20T15:42:12.620Z,27.03
2018-02-20T15:44:40.083Z,26.73
2018-02-20T15:47:07.540Z,27.77
2018-02-20T15:49:34.988Z,28.00
2018-02-20T15:52:02.447Z,30.00
2018-02-20T15:54:30.671Z,26.90
2018-02-20T15:56:58.134Z,26.67
2018-02-20T15:59:25.594Z,26.23
2018-02-20T16:01:56.758Z,25.97
2018-02-20T16:04:26.685Z,26.73
2018-02-20T16:06:55.550Z,27.47
2018-02-20T16:09:25.053Z,27.00
2018-02-20T16:11:54.820Z,28.70
2018-02-20T16:14:25.031Z,28.50
2018-02-20T16:16:57.493Z,27.37
2018-02-20T16:19:26.309Z,27.63
2018-02-20T16:21:56.760Z,26.60
2018-02-20T16:24:27.662Z,28.00
2018-02-20T16:26:58.084Z,27.37
2018-02-20T16:29:27.088Z,26.73
2018-02-20T16:31:54.958Z,29.80
2018-02-20T16:34:23.945Z,27.77
2018-02-20T16:36:52.552Z,27.93
2018-02-20T16:39:22.951Z,27.37
2018-02-20T16:41:51.743Z,29.37
2018-02-20T16:44:20.802Z,29.27
2018-02-20T16:46:51.102Z,28.77
2018-02-20T16:49:22.006Z,28.97
2018-02-20T16:51:49.580Z,29.03
2018-02-20T16:54:18.323Z,28.03
2018-02-20T16:56:46.717Z,28.07
2018-02-20T16:59:16.600Z,28.13
2018-02-20T17:01:46.178Z,29.00
2018-02-20T17:04:18.048Z,28.77
2018-02-20T17:06:46.096Z,28.77
2018-02-20T17:09:13.848Z,28.30
2018-02-20T17:11:41.509Z,30.33
2018-02-20T17:14:09.020Z,30.27
2018-02-20T17:16:37.539Z,27.80
2018-02-20T17:19:06.722Z,29.47
2018-02-20T17:21:35.107Z,29.70
2018-02-20T17:24:04.691Z,29.30
2018-02-20T17:26:34.295Z,30.07
2018-02-20T17:29:03.635Z,28.97
2018-02-20T17:31:31.426Z,29.73
2018-02-20T17:34:00.376Z,31.23
2018-02-20T17:36:29.165Z,30.80
2018-02-20T17:38:58.537Z,31.47
2018-02-20T17:41:27.669Z,31.60
2018-02-20T17:43:56.308Z,30.70
2018-02-20T17:46:24.279Z,30.63
2018-02-20T17:48:52.460Z,30.30
2018-02-20T17:51:20.924Z,30.87
2018-02-20T17:53:49.775Z,30.70
2018-02-20T17:56:17.524Z,30.60
2018-02-20T17:58:46.919Z,29.60
2018-02-20T18:01:14.899Z,30.97
2018-02-20T18:03:42.961Z,30.90
2018-02-20T18:06:11.046Z,32.00
2018-02-20T18:08:38.837Z,32.77
2018-02-20T18:11:07.289Z,31.10
2018-02-20T18:13:35.000Z,32.27
2018-02-20T18:16:03.010Z,33.47
2018-02-20T18:18:32.001Z,33.20
2018-02-20T18:21:00.433Z,31.30
2018-02-20T18:23:28.503Z,32.10
2018-02-20T18:25:57.311Z,33.60
2018-02-20T18:28:27.024Z,33.03
2018-02-20T18:30:56.476Z,31.83
2018-02-20T18:33:25.173Z,32.17
2018-02-20T18:35:54.941Z,31.03
2018-02-20T18:38:23.437Z,32.13
2018-02-20T18:40:52.086Z,31.90
2018-02-20T18:43:20.024Z,32.60
2018-02-20T18:45:49.130Z,31.40
2018-02-20T18:48:20.086Z,31.27
2018-02-20T18:50:48.506Z,30.87
2018-02-20T18:53:17.776Z,29.23
2018-02-20T18:55:48.237Z,29.93
2018-02-20T18:58:16.312Z,29.57
2018-02-20T19:00:49.871Z,28.97
2018-02-20T19:03:17.648Z,28.23
2018-02-20T19:05:46.334Z,29.43
2018-02-20T19:08:14.601Z,29.53
2018-02-20T19:10:43.826Z,30.30
2018-02-20T19:13:13.694Z,29.70
2018-02-20T19:15:42.868Z,29.53
2018-02-20T19:18:12.014Z,28.43
2018-02-20T19:20:40.375Z,29.27
2018-02-20T19:23:09.584Z,28.53
2018-02-20T19:25:40.174Z,31.60
2018-02-20T19:28:09.531Z,30.73
2018-02-20T19:30:44.127Z,30.20
2018-02-20T19:33:16.742Z,29.13
2018-02-20T19:35:44.548Z,32.05
2018-02-20T19:38:13.874Z,29.87
2018-02-20T19:40:42.024Z,29.53
2018-02-20T19:43:10.295Z,29.77
2018-02-20T19:45:38.093Z,30.67
2018-02-20T19:48:06.315Z,29.30
2018-02-20T19:50:35.711Z,29.57
2018-02-20T19:53:04.344Z,29.63
2018-02-20T19:55:32.770Z,28.43
2018-02-20T19:58:01.667Z,28.97
2018-02-20T20:00:29.756Z,29.37
2018-02-20T20:03:01.232Z,27.83
2018-02-20T20:05:29.561Z,30.27
2018-02-20T20:07:57.811Z,29.80
2018-02-20T20:10:27.913Z,29.00
2018-02-20T20:12:57.869Z,31.30
2018-02-20T20:15:25.638Z,30.67
2018-02-20T20:17:53.650Z,29.90
2018-02-20T20:20:22.306Z,31.30
2018-02-20T20:22:49.925Z,30.83
2018-02-20T20:25:18.414Z,30.10
2018-02-20T20:27:46.211Z,30.57
2018-02-20T20:30:13.774Z,30.80
2018-02-20T20:32:41.583Z,31.10
2018-02-20T20:35:09.299Z,31.73
2018-02-20T20:37:37.679Z,29.90
2018-02-20T20:40:05.480Z,30.83
2018-02-20T20:42:33.748Z,29.63
2018-02-20T20:45:03.188Z,29.87
2018-02-20T20:47:31.928Z,31.10
2018-02-20T20:50:00.987Z,31.20
2018-02-20T20:52:30.258Z,32.03
2018-02-20T20:55:00.328Z,30.57
2018-02-20T20:57:30.280Z,31.40
2018-02-20T20:59:58.811Z,30.70
2018-02-20T21:02:28.001Z,30.50
2018-02-20T21:04:55.868Z,31.13
2018-02-20T21:07:25.150Z,32.10
2018-02-20T21:09:55.692Z,30.97
2018-02-20T21:12:25.989Z,31.27
2018-02-20T21:14:54.403Z,30.90
2018-02-20T21:17:23.394Z,31.50
2018-02-20T21:19:52.863Z,30.60
2018-02-20T21:22:21.702Z,30.33
2018-02-20T21:24:50.673Z,31.23
2018-02-20T21:27:21.973Z,32.80
2018-02-20T21:29:51.047Z,33.23
2018-02-20T21:32:18.936Z,33.43
2018-02-20T21:34:47.582Z,31.93
2018-02-20T21:37:16.946Z,32.03
2018-02-20T21:39:45.901Z,32.53
2018-02-20T21:42:15.710Z,32.60
2018-02-20T21:44:44.089Z,31.97
2018-02-20T21:47:12.489Z,32.43
2018-02-20T21:49:40.489Z,32.07
2018-02-20T21:52:09.200Z,30.90
2018-02-20T21:54:37.551Z,31.70
2018-02-20T21:57:06.208Z,31.67
2018-02-20T21:59:35.588Z,32.30
2018-02-20T22:02:03.488Z,31.73
2018-02-20T22:04:32.541Z,32.33
2018-02-20T22:07:00.448Z,32.77
2018-02-20T22:09:29.303Z,32.13
2018-02-20T22:12:03.380Z,31.90
2018-02-20T22:14:32.133Z,33.13
2018-02-20T22:17:00.809Z,32.83
2018-02-20T22:19:32.229Z,32.30
2018-02-20T22:22:02.558Z,34.17
2018-02-20T22:24:30.493Z,33.17
2018-02-20T22:26:58.816Z,34.20
2018-02-20T22:29:27.114Z,33.90
2018-02-20T22:31:54.805Z,32.60
2018-02-20T22:34:23.217Z,34.13
2018-02-20T22:36:52.806Z,33.60
2018-02-20T22:39:21.048Z,33.93
2018-02-20T22:41:49.000Z,33.67
2018-02-20T22:44:17.812Z,34.07
2018-02-20T22:46:47.113Z,33.93
2018-02-20T22:49:15.169Z,35.40
2018-02-20T22:51:43.845Z,33.20
2018-02-20T22:54:13.199Z,34.23
2018-02-20T22:56:42.092Z,34.00
2018-02-20T22:59:11.026Z,35.17
2018-02-20T23:01:40.438Z,35.57
2018-02-20T23:04:08.607Z,34.07
2018-02-20T23:06:36.927Z,35.97
2018-02-20T23:09:04.384Z,35.50
2018-02-20T23:11:43.845Z,37.93
2018-02-20T23:14:11.285Z,36.83
2018-02-20T23:16:38.815Z,35.87
2018-02-20T23:19:06.254Z,37.90
2018-02-20T23:21:33.719Z,38.10
2018-02-20T23:24:01.172Z,36.83
2018-02-20T23:26:28.634Z,37.57
2018-02-20T23:28:56.103Z,38.53
2018-02-20T23:31:23.567Z,37.97
2018-02-20T23:33:51.076Z,38.60
2018-02-20T23:36:18.529Z,37.47
2018-02-20T23:38:46.787Z,38.93
2018-02-20T23:41:14.258Z,40.13
2018-02-20T23:43:41.732Z,38.80
2018-02-20T23:46:09.240Z,38.57
2018-02-20T23:48:36.700Z,41.13
2018-02-20T23:51:09.702Z,39.60
2018-02-20T23:53:37.179Z,38.87
2018-02-20T23:56:04.628Z,39.03
2018-02-20T23:58:32.081Z,40.67
